LPPT Airport Information

Runway Information
Runway 03 Length 12484 ft width 148 ft
Elevation 331 ft Threshold 296 ft Heading 22
Runway 21 Length 12484 ft Width 148 ft
Elevation 347 ft Threshold 1969 ft Heading 202
Runway 17 Length 7874 ft width 148 ft
Elevation 374 ft Threshold 0 ft Heading 168
Runway 35 Length 7874 ft Width 148 ft
Elevation 332 ft Threshold 492 ft Heading 348
Airport Frequencies
Type APP Name APP Frequency 119.1 MHZ
Type ATIS Name ATIS Frequency 124.15 MHZ
Type CLD Name CLD Frequency 118.95 MHZ
Type GND Name GND Frequency 121.75 MHZ
Type INFO Name INFO Frequency 123.75 MHZ
Type RDO Name RDO Frequency 127.9 MHZ
Type TWR Name TWR Frequency 118.1 MHZ
Airport Navaids
Type NDB Name Caparica Frequency 389 KHZ
Type NDB Name Arruda Frequency 382 KHZ
Type VOR-DME Name Lisboa Frequency 114800 KHZ
Airport Weather Information & NOTAM
ADDS - METARS form results

(2234 UTC 20 June 2018)
 
METAR text: LPPT 202230Z 17007KT 100V220 9999 TS FEW030 FEW035CB 22/17 Q1017
Conditions at: LPPT (LISBON/PORTELA , PT) observed 2230 UTC 20 June 2018
Temperature: 22.0°C (72°F)
Dewpoint: 17.0°C (63°F) [RH = 73%]
Pressure (altimeter): 30.03 inches Hg (1017.0 mb)
Winds: from the S (170 degrees) at 8 MPH (7 knots; 3.6 m/s)
Visibility: 6 or more miles (10+ km)
Ceiling: at least 12,000 feet AGL
Clouds: few clouds at 3000 feet AGL
few clouds at 3500 feet AGL
Weather: TS  (thunderstorm)

METAR text: LPPT 202200Z 29004KT 260V320 9999 TS FEW030 FEW035CB 23/16 Q1016
Conditions at: LPPT (LISBON/PORTELA , PT) observed 2200 UTC 20 June 2018
Temperature: 23.0°C (73°F)
Dewpoint: 16.0°C (61°F) [RH = 65%]
Pressure (altimeter): 30.00 inches Hg (1016.0 mb)
Winds: from the WNW (290 degrees) at 5 MPH (4 knots; 2.1 m/s)
Visibility: 6 or more miles (10+ km)
Ceiling: at least 12,000 feet AGL
Clouds: few clouds at 3000 feet AGL
few clouds at 3500 feet AGL
Weather: TS  (thunderstorm)